createdAt,value
2023-03-28T00:01:12.472Z,0.90
2023-03-28T00:03:41.546Z,0.90
2023-03-28T00:06:12.339Z,0.90
2023-03-28T00:08:41.554Z,0.90
2023-03-28T00:11:18.963Z,0.90
2023-03-28T00:13:48.345Z,0.80
2023-03-28T00:16:18.409Z,0.80
2023-03-28T00:18:47.024Z,0.80
2023-03-28T00:21:24.311Z,0.80
2023-03-28T00:23:54.360Z,0.80
2023-03-28T00:26:26.634Z,0.90
2023-03-28T00:28:55.816Z,0.70
2023-03-28T00:31:27.083Z,0.70
2023-03-28T00:33:56.267Z,0.70
2023-03-28T00:36:29.564Z,0.70
2023-03-28T00:38:59.146Z,0.70
2023-03-28T00:41:32.310Z,0.70
2023-03-28T00:44:02.615Z,0.60
2023-03-28T00:46:37.020Z,0.60
2023-03-28T00:49:10.886Z,0.60
2023-03-28T00:51:42.884Z,0.60
2023-03-28T00:54:15.707Z,0.60
2023-03-28T00:56:48.098Z,0.60
2023-03-28T00:59:20.997Z,0.50
2023-03-28T01:01:51.178Z,0.50
2023-03-28T01:04:22.272Z,0.50
2023-03-28T01:06:54.797Z,0.50
2023-03-28T01:09:24.602Z,0.50
2023-03-28T01:11:55.009Z,0.60
2023-03-28T01:14:26.454Z,0.50
2023-03-28T01:16:57.750Z,0.50
2023-03-28T01:19:42.797Z,0.60
2023-03-28T01:22:36.635Z,0.60
2023-03-28T01:25:39.637Z,0.60
2023-03-28T01:28:17.616Z,0.60
2023-03-28T01:31:04.783Z,0.50
2023-03-28T01:33:58.584Z,0.50
2023-03-28T01:37:01.579Z,0.40
2023-03-28T01:39:41.942Z,0.40
2023-03-28T01:42:19.361Z,0.40
2023-03-28T01:44:53.345Z,0.40
2023-03-28T01:47:28.455Z,0.30
2023-03-28T01:50:03.429Z,0.30
2023-03-28T01:52:38.777Z,0.30
2023-03-28T01:55:11.968Z,0.30
2023-03-28T01:57:47.255Z,0.30
2023-03-28T02:00:22.776Z,0.20
2023-03-28T02:02:55.840Z,0.20
2023-03-28T02:05:26.482Z,0.20
2023-03-28T02:07:57.004Z,0.20
2023-03-28T02:10:27.368Z,0.20
2023-03-28T02:12:59.155Z,0.20
2023-03-28T02:15:30.434Z,0.20
2023-03-28T02:18:03.134Z,0.20
2023-03-28T02:20:34.139Z,0.20
2023-03-28T02:23:09.128Z,0.30
2023-03-28T02:25:39.208Z,0.30
2023-03-28T02:28:10.196Z,0.30
2023-03-28T02:30:38.774Z,0.30
2023-03-28T02:33:10.138Z,0.30
2023-03-28T02:35:50.723Z,0.30
2023-03-28T02:38:34.998Z,0.30
2023-03-28T02:41:15.016Z,0.20
2023-03-28T02:44:01.600Z,0.20
2023-03-28T02:46:33.110Z,0.20
2023-03-28T02:49:47.293Z,0.20
2023-03-28T02:52:30.620Z,0.10
2023-03-28T02:55:08.727Z,0.20
2023-03-28T02:57:39.969Z,0.20
2023-03-28T03:00:12.056Z,0.20
2023-03-28T03:02:43.394Z,0.20
2023-03-28T03:05:13.958Z,0.30
2023-03-28T03:07:42.879Z,0.20
2023-03-28T03:10:15.077Z,0.20
2023-03-28T03:12:44.363Z,0.20
2023-03-28T03:15:17.169Z,0.10
2023-03-28T03:17:46.152Z,0.10
2023-03-28T03:20:15.299Z,0.10
2023-03-28T03:22:43.976Z,0.10
2023-03-28T03:25:14.784Z,0.10
2023-03-28T03:27:43.578Z,0.10
2023-03-28T03:30:13.682Z,0.10
2023-03-28T03:32:44.168Z,0.10
2023-03-28T03:35:13.004Z,0.10
2023-03-28T03:37:41.563Z,0.10
2023-03-28T03:40:11.305Z,0.10
2023-03-28T03:42:41.388Z,0.10
2023-03-28T03:45:11.262Z,0.10
2023-03-28T03:47:39.919Z,0.10
2023-03-28T03:50:09.533Z,0.10
2023-03-28T03:52:38.500Z,0.20
2023-03-28T03:55:07.801Z,0.20
2023-03-28T03:57:36.783Z,0.10
2023-03-28T04:00:11.943Z,0.10
2023-03-28T04:02:40.772Z,0.00
2023-03-28T04:05:09.999Z,0.00
2023-03-28T04:07:39.000Z,0.00
2023-03-28T04:10:08.536Z,-0.10
2023-03-28T04:12:37.152Z,-0.10
2023-03-28T04:15:08.628Z,-0.10
2023-03-28T04:17:37.926Z,-0.20
2023-03-28T04:20:12.885Z,-0.20
2023-03-28T04:22:45.380Z,-0.20
2023-03-28T04:25:15.113Z,-0.20
2023-03-28T04:27:47.358Z,-0.20
2023-03-28T04:30:18.001Z,-0.20
2023-03-28T04:32:49.600Z,-0.20
2023-03-28T04:35:18.309Z,-0.20
2023-03-28T04:37:47.496Z,-0.20
2023-03-28T04:40:17.907Z,-0.30
2023-03-28T04:42:46.839Z,-0.30
2023-03-28T04:45:17.861Z,-0.30
2023-03-28T04:47:48.334Z,-0.40
2023-03-28T04:50:17.139Z,-0.30
2023-03-28T04:52:45.857Z,-0.30
2023-03-28T04:55:16.205Z,-0.40
2023-03-28T04:57:44.874Z,-0.40
2023-03-28T05:00:16.942Z,-0.40
2023-03-28T05:02:47.839Z,-0.40
2023-03-28T05:05:16.908Z,-0.50
2023-03-28T05:07:45.822Z,-0.50
2023-03-28T05:10:14.458Z,-0.50
2023-03-28T05:12:43.085Z,-0.50
2023-03-28T05:15:21.352Z,-0.60
2023-03-28T05:17:53.249Z,-0.60
2023-03-28T05:20:22.395Z,-0.60
2023-03-28T05:22:51.144Z,-0.60
2023-03-28T05:25:21.968Z,-0.60
2023-03-28T05:27:51.357Z,-0.50
2023-03-28T05:30:20.802Z,-0.60
2023-03-28T05:32:49.739Z,-0.60
2023-03-28T05:35:19.959Z,-0.50
2023-03-28T05:37:48.554Z,-0.50
2023-03-28T05:40:17.225Z,-0.40
2023-03-28T05:42:46.053Z,-0.40
2023-03-28T05:45:14.699Z,-0.20
2023-03-28T05:47:43.383Z,-0.30
2023-03-28T05:50:12.421Z,-0.30
2023-03-28T05:52:42.385Z,-0.30
2023-03-28T05:55:11.311Z,-0.30
2023-03-28T05:57:39.958Z,-0.20
2023-03-28T06:00:12.067Z,-0.20
2023-03-28T06:02:43.211Z,-0.10
2023-03-28T06:05:12.107Z,-0.10
2023-03-28T06:07:43.148Z,0.00
2023-03-28T06:10:13.230Z,0.00
2023-03-28T06:12:42.454Z,0.00
2023-03-28T06:15:12.654Z,0.00
2023-03-28T06:17:41.382Z,0.10
2023-03-28T06:20:10.886Z,0.10
2023-03-28T06:22:40.015Z,0.10
2023-03-28T06:25:11.103Z,0.30
2023-03-28T06:27:39.805Z,0.30
2023-03-28T06:30:09.674Z,0.40
2023-03-28T06:32:38.300Z,0.40
2023-03-28T06:35:07.934Z,0.40
2023-03-28T06:37:36.601Z,0.50
2023-03-28T06:40:05.951Z,0.60
2023-03-28T06:42:36.033Z,0.60
2023-03-28T06:45:05.982Z,0.70
2023-03-28T06:47:34.630Z,0.80
2023-03-28T06:50:03.306Z,1.00
2023-03-28T06:52:32.020Z,1.10
2023-03-28T06:55:00.713Z,1.30
2023-03-28T06:57:29.499Z,1.40
2023-03-28T06:59:59.521Z,1.50
2023-03-28T07:02:28.211Z,1.60
2023-03-28T07:04:56.844Z,1.80
2023-03-28T07:07:25.430Z,1.80
2023-03-28T07:09:54.725Z,2.00
2023-03-28T07:12:23.454Z,2.10
2023-03-28T07:14:52.012Z,2.10
2023-03-28T07:17:22.057Z,2.20
2023-03-28T07:19:51.304Z,2.20
2023-03-28T07:22:19.900Z,2.40
2023-03-28T07:24:48.521Z,2.50
2023-03-28T07:27:17.330Z,2.60
2023-03-28T07:29:46.068Z,2.90
2023-03-28T07:32:15.779Z,3.10
2023-03-28T07:34:45.880Z,3.30
2023-03-28T07:37:15.041Z,3.50
2023-03-28T07:39:43.920Z,3.70
2023-03-28T07:42:13.244Z,3.80
2023-03-28T07:44:42.486Z,3.90
2023-03-28T07:47:11.392Z,4.00
2023-03-28T07:49:41.140Z,4.20
2023-03-28T07:52:11.734Z,4.30
2023-03-28T07:54:40.597Z,4.20
2023-03-28T07:57:09.457Z,4.20
2023-03-28T07:59:38.136Z,4.20
2023-03-28T08:02:07.108Z,4.20
2023-03-28T08:04:35.791Z,4.30
2023-03-28T08:07:04.816Z,4.30
2023-03-28T08:09:34.897Z,4.20
2023-03-28T08:12:03.670Z,4.20
2023-03-28T08:14:32.610Z,4.20
2023-03-28T08:17:01.211Z,4.30
2023-03-28T08:19:29.848Z,4.40
2023-03-28T08:22:02.662Z,4.50
2023-03-28T08:24:36.192Z,4.70
2023-03-28T08:27:06.506Z,4.90
2023-03-28T08:29:35.177Z,5.10
2023-03-28T08:32:06.290Z,5.20
2023-03-28T08:34:35.150Z,5.20
2023-03-28T08:37:03.998Z,5.30
2023-03-28T08:39:33.626Z,5.30
2023-03-28T08:42:39.953Z,5.40
2023-03-28T08:45:31.400Z,5.70
2023-03-28T08:48:09.772Z,5.90
2023-03-28T08:50:44.079Z,6.00
2023-03-28T08:53:22.103Z,6.10
2023-03-28T08:55:53.431Z,6.20
2023-03-28T08:58:26.668Z,6.30
2023-03-28T09:00:55.410Z,6.40
2023-03-28T09:03:25.256Z,6.40
2023-03-28T09:06:00.830Z,6.50
2023-03-28T09:08:53.213Z,6.60
2023-03-28T09:11:33.380Z,6.60
2023-03-28T09:14:20.096Z,6.70
2023-03-28T09:16:59.687Z,6.80
2023-03-28T09:19:51.816Z,6.90
2023-03-28T09:22:29.534Z,6.90
2023-03-28T09:25:07.520Z,6.90
2023-03-28T09:27:38.674Z,7.00
2023-03-28T09:30:19.539Z,7.10
2023-03-28T09:32:49.654Z,7.10
2023-03-28T09:35:21.376Z,7.10
2023-03-28T09:37:52.965Z,7.10
2023-03-28T09:40:24.391Z,7.10
2023-03-28T09:43:00.844Z,7.10
2023-03-28T09:45:48.066Z,7.20
2023-03-28T09:48:23.968Z,7.30
2023-03-28T09:50:54.774Z,7.30
2023-03-28T09:53:26.207Z,7.40
2023-03-28T09:56:04.303Z,7.70
2023-03-28T09:58:50.161Z,7.70
2023-03-28T10:01:31.962Z,7.80
2023-03-28T10:04:01.743Z,7.90
2023-03-28T10:06:32.100Z,8.00
2023-03-28T10:09:16.264Z,8.30
2023-03-28T10:11:54.905Z,8.50
2023-03-28T10:14:34.384Z,8.60
2023-03-28T10:17:07.012Z,8.60
2023-03-28T10:19:38.613Z,8.60
2023-03-28T10:22:09.202Z,8.70
2023-03-28T10:24:39.704Z,8.60
2023-03-28T10:27:16.284Z,8.60
2023-03-28T10:29:46.104Z,8.50
2023-03-28T10:32:26.269Z,8.40
2023-03-28T10:35:03.103Z,8.50
2023-03-28T10:37:33.803Z,8.80
2023-03-28T10:40:07.099Z,8.80
2023-03-28T10:42:43.800Z,8.90
2023-03-28T10:45:21.950Z,9.10
2023-03-28T10:47:55.708Z,9.00
2023-03-28T10:50:29.986Z,9.00
2023-03-28T10:53:14.333Z,8.80
2023-03-28T10:55:54.924Z,9.00
2023-03-28T10:58:31.958Z,9.10
2023-03-28T11:01:06.021Z,9.30
2023-03-28T11:03:48.765Z,9.40
2023-03-28T11:06:23.009Z,9.60
2023-03-28T11:09:02.234Z,9.70
2023-03-28T11:11:47.231Z,9.80
2023-03-28T11:14:34.200Z,10.00
2023-03-28T11:17:11.598Z,9.90
2023-03-28T11:20:08.786Z,9.80
2023-03-28T11:22:55.481Z,10.00
2023-03-28T11:25:38.580Z,10.20
2023-03-28T11:28:16.673Z,10.10
2023-03-28T11:30:48.659Z,10.00
2023-03-28T11:33:22.198Z,10.10
2023-03-28T11:35:56.922Z,9.80
2023-03-28T11:38:28.975Z,9.80
2023-03-28T11:41:03.196Z,9.90
2023-03-28T11:43:38.320Z,9.90
2023-03-28T11:46:11.377Z,9.80
2023-03-28T11:48:45.432Z,9.80
2023-03-28T11:51:20.300Z,9.60
2023-03-28T11:53:54.738Z,9.70
2023-03-28T11:56:42.328Z,9.80
2023-03-28T11:59:15.783Z,9.90
2023-03-28T12:01:48.604Z,10.00
2023-03-28T12:04:22.344Z,9.90
2023-03-28T12:07:03.519Z,9.90
2023-03-28T12:09:37.253Z,10.10
2023-03-28T12:12:12.387Z,10.20
2023-03-28T12:14:50.846Z,10.40
2023-03-28T12:17:23.346Z,10.60
2023-03-28T12:19:53.950Z,10.70
2023-03-28T12:22:34.256Z,10.80
2023-03-28T12:25:09.132Z,10.90
2023-03-28T12:27:53.947Z,11.10
2023-03-28T12:30:30.007Z,11.10
2023-03-28T12:33:06.764Z,10.90
2023-03-28T12:35:42.936Z,10.70
2023-03-28T12:38:24.721Z,10.60
2023-03-28T12:41:00.209Z,10.70
2023-03-28T12:43:39.706Z,10.50
2023-03-28T12:46:09.626Z,10.40
2023-03-28T12:48:42.044Z,10.40
2023-03-28T12:51:16.463Z,10.20
2023-03-28T12:54:00.700Z,10.30
2023-03-28T12:56:29.559Z,10.20
2023-03-28T12:58:59.529Z,10.20
2023-03-28T13:01:45.406Z,10.20
2023-03-28T13:04:22.285Z,10.10
2023-03-28T13:06:59.619Z,9.90
2023-03-28T13:09:49.556Z,9.90
2023-03-28T13:12:29.398Z,9.80
2023-03-28T13:15:02.885Z,10.00
2023-03-28T13:17:34.284Z,10.20
2023-03-28T13:20:10.799Z,10.20
2023-03-28T13:22:44.290Z,10.30
2023-03-28T13:25:29.602Z,10.30
2023-03-28T13:28:00.738Z,10.30
2023-03-28T13:30:31.295Z,10.30
2023-03-28T13:33:02.234Z,10.20
2023-03-28T13:35:41.230Z,10.30
2023-03-28T13:38:24.834Z,10.10
2023-03-28T13:40:56.704Z,10.00
2023-03-28T13:43:27.549Z,9.80
2023-03-28T13:45:59.689Z,9.70
2023-03-28T13:48:34.543Z,9.50
2023-03-28T13:51:07.431Z,9.60
2023-03-28T13:53:47.055Z,9.70
2023-03-28T13:56:23.986Z,9.80
2023-03-28T13:58:55.361Z,9.90
2023-03-28T14:01:27.027Z,10.00
2023-03-28T14:03:56.886Z,10.20
2023-03-28T14:06:27.915Z,10.30
2023-03-28T14:09:01.888Z,10.30
2023-03-28T14:11:35.855Z,10.20
2023-03-28T14:14:09.632Z,10.10
2023-03-28T14:16:39.054Z,10.00
2023-03-28T14:19:10.048Z,10.00
2023-03-28T14:21:39.188Z,10.00
2023-03-28T14:24:09.789Z,10.00
2023-03-28T14:26:39.865Z,9.90
2023-03-28T14:29:12.983Z,9.80
2023-03-28T14:31:46.284Z,9.70
2023-03-28T14:34:18.459Z,9.60
2023-03-28T14:36:59.049Z,9.50
2023-03-28T14:39:30.747Z,9.50
2023-03-28T14:42:03.862Z,9.60
2023-03-28T14:44:37.115Z,9.70
2023-03-28T14:47:06.531Z,9.80
2023-03-28T14:49:35.979Z,10.10
2023-03-28T14:52:04.749Z,10.40
2023-03-28T14:54:36.867Z,10.60
2023-03-28T14:57:07.960Z,10.70
2023-03-28T14:59:40.916Z,10.50
2023-03-28T15:02:21.696Z,10.40
2023-03-28T15:04:51.318Z,10.30
2023-03-28T15:07:26.622Z,10.20
2023-03-28T15:10:10.295Z,10.20
2023-03-28T15:12:46.708Z,10.20
2023-03-28T15:15:18.372Z,10.20
2023-03-28T15:17:47.507Z,10.20
2023-03-28T15:20:19.268Z,10.30
2023-03-28T15:22:51.262Z,10.30
2023-03-28T15:25:21.834Z,10.20
2023-03-28T15:27:57.500Z,10.10
2023-03-28T15:30:27.698Z,10.10
2023-03-28T15:33:02.978Z,10.00
2023-03-28T15:35:33.881Z,9.90
2023-03-28T15:38:06.506Z,9.90
2023-03-28T15:40:41.823Z,9.80
2023-03-28T15:43:35.887Z,9.80
2023-03-28T15:46:09.306Z,9.80
2023-03-28T15:48:38.993Z,9.80
2023-03-28T15:51:09.569Z,9.80
2023-03-28T15:53:38.928Z,9.90
2023-03-28T15:56:10.003Z,10.00
2023-03-28T15:58:45.582Z,10.00
2023-03-28T16:01:28.495Z,10.00
2023-03-28T16:04:16.780Z,10.00
2023-03-28T16:06:46.461Z,9.90
2023-03-28T16:09:18.996Z,9.80
2023-03-28T16:11:50.548Z,9.80
2023-03-28T16:14:21.525Z,9.70
2023-03-28T16:16:55.072Z,9.70
2023-03-28T16:19:25.420Z,9.70
2023-03-28T16:21:54.145Z,9.50
2023-03-28T16:24:22.765Z,9.40
2023-03-28T16:26:51.500Z,9.40
2023-03-28T16:29:21.583Z,9.30
2023-03-28T16:31:50.430Z,9.20
2023-03-28T16:34:19.151Z,9.10
2023-03-28T16:36:47.980Z,9.10
2023-03-28T16:39:16.590Z,9.00
2023-03-28T16:41:45.257Z,8.90
2023-03-28T16:44:13.871Z,8.90
2023-03-28T16:46:43.874Z,8.80
2023-03-28T16:49:12.489Z,8.80
2023-03-28T16:51:41.108Z,8.70
2023-03-28T16:54:10.252Z,8.70
2023-03-28T16:56:39.282Z,8.60
2023-03-28T16:59:08.375Z,8.70
2023-03-28T17:01:37.314Z,8.70
2023-03-28T17:04:07.469Z,8.60
2023-03-28T17:06:36.152Z,8.60
2023-03-28T17:09:05.690Z,8.60
2023-03-28T17:11:34.834Z,8.60
2023-03-28T17:14:03.836Z,8.50
2023-03-28T17:16:32.768Z,8.50
2023-03-28T17:19:01.369Z,8.40
2023-03-28T17:21:31.457Z,8.40
2023-03-28T17:24:00.117Z,8.40
2023-03-28T17:26:28.761Z,8.40
2023-03-28T17:28:58.401Z,8.40
2023-03-28T17:31:27.813Z,8.40
2023-03-28T17:33:56.785Z,8.30
2023-03-28T17:36:28.225Z,8.30
2023-03-28T17:38:59.665Z,8.30
2023-03-28T17:41:28.849Z,8.30
2023-03-28T17:43:58.411Z,8.20
2023-03-28T17:46:28.750Z,8.20
2023-03-28T17:48:57.388Z,8.20
2023-03-28T17:51:26.024Z,8.20
2023-03-28T17:53:54.687Z,8.20
2023-03-28T17:56:24.688Z,8.20
2023-03-28T17:58:53.301Z,8.10
2023-03-28T18:01:22.479Z,8.10
2023-03-28T18:03:51.224Z,8.00
2023-03-28T18:06:19.873Z,8.00
2023-03-28T18:08:48.537Z,8.00
2023-03-28T18:11:18.839Z,7.90
2023-03-28T18:13:48.802Z,7.90
2023-03-28T18:16:18.497Z,7.80
2023-03-28T18:18:47.334Z,7.80
2023-03-28T18:21:16.520Z,7.80
2023-03-28T18:23:45.185Z,7.70
2023-03-28T18:26:13.781Z,7.70
2023-03-28T18:28:42.409Z,7.60
2023-03-28T18:31:14.470Z,7.70
2023-03-28T18:33:43.523Z,7.60
2023-03-28T18:36:12.814Z,7.60
2023-03-28T18:38:43.195Z,7.50
2023-03-28T18:41:13.043Z,7.50
2023-03-28T18:43:42.741Z,7.50
2023-03-28T18:46:15.929Z,7.40
2023-03-28T18:48:45.448Z,7.40
2023-03-28T18:51:14.309Z,7.40
2023-03-28T18:53:43.401Z,7.30
2023-03-28T18:56:13.565Z,7.40
2023-03-28T18:58:42.371Z,7.30
2023-03-28T19:01:12.795Z,7.40
2023-03-28T19:03:42.827Z,7.30
2023-03-28T19:06:13.338Z,7.30
2023-03-28T19:08:42.439Z,7.30
2023-03-28T19:11:13.296Z,7.30
2023-03-28T19:13:42.626Z,7.30
2023-03-28T19:16:14.467Z,7.30
2023-03-28T19:18:45.314Z,7.30
2023-03-28T19:21:14.888Z,7.20
2023-03-28T19:23:43.960Z,7.10
2023-03-28T19:26:13.939Z,7.10
2023-03-28T19:28:43.085Z,7.00
2023-03-28T19:31:14.554Z,7.00
2023-03-28T19:33:44.823Z,6.90
2023-03-28T19:36:13.508Z,6.90
2023-03-28T19:38:42.427Z,6.80
2023-03-28T19:41:18.102Z,6.80
2023-03-28T19:43:48.013Z,6.80
2023-03-28T19:46:23.030Z,6.70
2023-03-28T19:48:54.748Z,6.70
2023-03-28T19:51:23.860Z,6.70
2023-03-28T19:53:52.579Z,6.70
2023-03-28T19:56:23.090Z,6.70
2023-03-28T19:58:52.173Z,6.70
2023-03-28T20:01:22.256Z,6.70
2023-03-28T20:03:53.222Z,6.70
2023-03-28T20:06:24.007Z,6.60
2023-03-28T20:08:52.857Z,6.60
2023-03-28T20:11:22.129Z,6.60
2023-03-28T20:13:50.913Z,6.60
2023-03-28T20:16:21.194Z,6.60
2023-03-28T20:18:49.785Z,6.60
2023-03-28T20:21:19.646Z,6.60
2023-03-28T20:23:48.205Z,6.50
2023-03-28T20:26:19.256Z,6.50
2023-03-28T20:28:49.889Z,6.50
2023-03-28T20:31:19.936Z,6.50
2023-03-28T20:33:50.040Z,6.50
2023-03-28T20:36:18.623Z,6.40
2023-03-28T20:38:47.627Z,6.40
2023-03-28T20:41:18.340Z,6.40
2023-03-28T20:43:48.108Z,6.30
2023-03-28T20:46:19.643Z,6.30
2023-03-28T20:48:53.260Z,6.30
2023-03-28T20:51:23.591Z,6.20
2023-03-28T20:53:55.460Z,6.20
2023-03-28T20:56:24.862Z,6.20
2023-03-28T20:58:53.810Z,6.20
2023-03-28T21:01:26.385Z,6.20
2023-03-28T21:04:02.201Z,6.10
2023-03-28T21:06:34.889Z,6.10
2023-03-28T21:09:05.664Z,6.10
2023-03-28T21:11:35.714Z,6.10
2023-03-28T21:14:04.834Z,6.10
2023-03-28T21:16:34.662Z,6.10
2023-03-28T21:19:05.146Z,6.10
2023-03-28T21:21:34.264Z,6.10
2023-03-28T21:24:04.636Z,6.10
2023-03-28T21:26:33.617Z,6.10
2023-03-28T21:29:02.854Z,6.00
2023-03-28T21:31:32.079Z,6.00
2023-03-28T21:34:01.046Z,6.00
2023-03-28T21:36:31.124Z,6.00
2023-03-28T21:38:59.743Z,6.00
2023-03-28T21:41:28.404Z,6.00
2023-03-28T21:43:57.243Z,6.00
2023-03-28T21:46:26.137Z,5.90
2023-03-28T21:48:55.239Z,5.90
2023-03-28T21:51:23.818Z,5.90
2023-03-28T21:53:53.791Z,5.90
2023-03-28T21:56:23.078Z,5.90
2023-03-28T21:58:51.690Z,5.90
2023-03-28T22:01:20.856Z,5.80
2023-03-28T22:03:49.770Z,5.80
2023-03-28T22:06:19.221Z,5.80
2023-03-28T22:08:52.007Z,5.80
2023-03-28T22:11:27.621Z,5.80
2023-03-28T22:14:01.554Z,5.80
2023-03-28T22:16:32.476Z,5.80
2023-03-28T22:19:01.654Z,5.70
2023-03-28T22:21:31.524Z,5.70
2023-03-28T22:24:02.947Z,5.70
2023-03-28T22:26:32.957Z,5.70
2023-03-28T22:29:01.957Z,5.70
2023-03-28T22:31:30.716Z,5.60
2023-03-28T22:33:59.606Z,5.60
2023-03-28T22:36:28.270Z,5.60
2023-03-28T22:38:57.089Z,5.70
2023-03-28T22:41:25.904Z,5.60
2023-03-28T22:43:55.882Z,5.60
2023-03-28T22:46:26.063Z,5.60
2023-03-28T22:48:58.539Z,5.70
2023-03-28T22:51:28.097Z,5.70
2023-03-28T22:54:00.339Z,5.60
2023-03-28T22:56:29.247Z,5.60
2023-03-28T22:59:01.264Z,5.70
2023-03-28T23:01:30.541Z,5.70
2023-03-28T23:03:59.250Z,5.60
2023-03-28T23:06:28.656Z,5.70
2023-03-28T23:08:58.693Z,5.70
2023-03-28T23:11:27.574Z,5.70
2023-03-28T23:14:02.733Z,5.60
2023-03-28T23:16:32.957Z,5.60
2023-03-28T23:19:02.753Z,5.60
2023-03-28T23:21:32.293Z,5.60
2023-03-28T23:24:01.101Z,5.60
2023-03-28T23:26:29.748Z,5.60
2023-03-28T23:28:58.434Z,5.60
2023-03-28T23:31:27.122Z,5.60
2023-03-28T23:33:57.103Z,5.60
2023-03-28T23:36:26.138Z,5.60
2023-03-28T23:38:54.778Z,5.50
2023-03-28T23:41:23.662Z,5.50
2023-03-28T23:43:52.237Z,5.50
2023-03-28T23:46:21.308Z,5.60
2023-03-28T23:48:49.951Z,5.50
2023-03-28T23:51:19.950Z,5.60
2023-03-28T23:53:48.588Z,5.50
2023-03-28T23:56:17.165Z,5.50
2023-03-28T23:58:45.733Z,5.50
